Time;durP1;ratioP1;P1;durP2;ratioP2;P2;SDS_P1;SDS_P2;PMS_P1;PMS_P2;Temp;Humidity;BMP_temperature;BMP_pressure;BME280_temperature;BME280_humidity;BME280_pressure;Samples;Min_cycle;Max_cycle;Signal;HPM_P1;HPM_P2
2021/06/13 00:01:08;;;;;;;5.90;2.27;;;13.20;99.90;;;;;;5124223;27;20214;-46
2021/06/13 00:03:34;;;;;;;5.83;2.30;;;13.20;99.90;;;;;;5120384;27;20983;-45
2021/06/13 00:06:00;;;;;;;7.10;2.40;;;13.20;99.90;;;;;;5124184;27;20188;-46
2021/06/13 00:08:27;;;;;;;6.20;2.00;;;13.20;99.90;;;;;;5104903;28;20193;-53
2021/06/13 00:10:53;;;;;;;9.50;2.90;;;13.20;99.90;;;;;;5118546;28;20220;-47
2021/06/13 00:13:19;;;;;;;7.43;2.33;;;13.20;99.90;;;;;;5122592;27;20203;-49
2021/06/13 00:15:46;;;;;;;6.80;2.43;;;13.20;99.90;;;;;;5125968;27;20894;-47
2021/06/13 00:18:13;;;;;;;8.60;2.90;;;13.20;99.90;;;;;;5125032;27;20185;-52
2021/06/13 00:20:39;;;;;;;7.53;2.93;;;13.20;99.90;;;;;;5114293;27;20215;-45
2021/06/13 00:23:05;;;;;;;7.90;2.53;;;13.20;99.90;;;;;;5128057;27;20224;-47
2021/06/13 00:25:31;;;;;;;5.93;2.30;;;13.20;99.90;;;;;;5105879;27;20215;-50
2021/06/13 00:27:58;;;;;;;8.27;2.23;;;13.20;99.90;;;;;;5127829;27;20658;-49
2021/06/13 00:30:26;;;;;;;6.97;2.70;;;13.20;99.90;;;;;;5124557;27;20565;-50
2021/06/13 00:32:53;;;;;;;7.57;2.90;;;13.30;99.90;;;;;;5127040;27;20258;-46
2021/06/13 00:35:21;;;;;;;14.73;2.80;;;13.30;99.90;;;;;;5126544;27;20197;-50
2021/06/13 00:37:47;;;;;;;7.53;2.43;;;13.30;99.90;;;;;;5123454;27;20185;-51
2021/06/13 00:40:14;;;;;;;8.00;2.90;;;13.20;99.90;;;;;;5126271;27;20591;-51
2021/06/13 00:42:43;;;;;;;9.43;2.50;;;13.30;99.90;;;;;;5111709;27;20303;-45
2021/06/13 00:45:11;;;;;;;9.90;2.53;;;13.20;99.90;;;;;;5126183;27;20241;-48
2021/06/13 00:47:38;;;;;;;8.93;2.40;;;13.20;99.90;;;;;;5124148;27;20181;-45
2021/06/13 00:50:08;;;;;;;6.70;2.93;;;13.20;99.90;;;;;;5126092;27;20242;-48
2021/06/13 00:52:35;;;;;;;9.93;2.73;;;13.10;99.90;;;;;;5123569;27;20189;-47
2021/06/13 00:55:03;;;;;;;5.70;2.80;;;13.10;99.90;;;;;;5125885;27;20509;-48
2021/06/13 00:57:30;;;;;;;6.07;2.43;;;13.10;99.90;;;;;;5108498;27;20570;-53
2021/06/13 00:59:56;;;;;;;10.47;2.77;;;13.10;99.90;;;;;;5125449;27;20217;-46
2021/06/13 01:02:22;;;;;;;7.53;2.63;;;13.00;99.90;;;;;;5113289;27;20221;-51
2021/06/13 01:04:49;;;;;;;7.53;2.50;;;13.00;99.90;;;;;;5103981;28;20944;-47
2021/06/13 01:07:23;;;;;;;6.87;2.40;;;13.00;99.90;;;;;;5116902;27;20245;-51
2021/06/13 01:09:53;;;;;;;7.10;2.63;;;12.90;99.90;;;;;;5125340;27;20313;-49
2021/06/13 01:12:26;;;;;;;9.87;2.73;;;12.90;99.90;;;;;;5110205;27;20216;-50
2021/06/13 01:15:02;;;;;;;6.53;2.33;;;;;;;;;;5120980;27;20188;-45
2021/06/13 01:17:34;;;;;;;8.67;2.57;;;;;;;;;;5122333;27;20192;-50
2021/06/13 01:20:14;;;;;;;7.87;2.30;;;12.80;99.90;;;;;;5124636;27;20273;-48
2021/06/13 01:23:00;;;;;;;6.60;2.47;;;12.70;99.90;;;;;;5123139;27;20200;-45
2021/06/13 01:25:36;;;;;;;8.73;3.00;;;12.70;99.90;;;;;;5105121;27;20203;-51
2021/06/13 01:28:37;;;;;;;4.90;2.30;;;12.70;99.90;;;;;;5093710;27;20712;-46
2021/06/13 01:31:04;;;;;;;7.37;2.17;;;12.70;99.90;;;;;;5125175;27;20299;-46
2021/06/13 01:33:33;;;;;;;8.67;2.73;;;12.60;99.90;;;;;;5121910;27;20196;-50
2021/06/13 01:36:02;;;;;;;7.50;2.87;;;12.50;99.90;;;;;;5124524;27;20196;-47
2021/06/13 01:38:29;;;;;;;13.70;2.53;;;12.60;99.90;;;;;;5120878;27;20549;-49
2021/06/13 01:41:00;;;;;;;8.83;2.50;;;12.50;99.90;;;;;;5124530;27;20213;-48
2021/06/13 01:43:28;;;;;;;7.63;2.83;;;12.50;99.90;;;;;;5106419;27;20196;-50
2021/06/13 01:45:58;;;;;;;5.20;2.30;;;12.40;99.90;;;;;;5122706;27;20215;-49
2021/06/13 01:48:25;;;;;;;10.47;3.07;;;12.30;99.90;;;;;;5102764;28;20190;-51
2021/06/13 01:50:53;;;;;;;8.97;3.20;;;12.30;99.90;;;;;;5102655;28;20418;-45
2021/06/13 01:53:20;;;;;;;5.07;2.70;;;12.30;99.90;;;;;;5123874;27;20189;-50
2021/06/13 01:55:48;;;;;;;5.10;2.40;;;12.30;99.90;;;;;;5123420;27;20269;-48
2021/06/13 01:58:19;;;;;;;7.60;3.30;;;12.30;99.90;;;;;;5124039;27;20189;-49
2021/06/13 02:01:11;;;;;;;5.80;2.67;;;12.30;99.90;;;;;;5110635;27;20224;-47
2021/06/13 02:03:41;;;;;;;6.17;2.40;;;12.30;99.90;;;;;;5122692;27;20196;-45
2021/06/13 02:06:32;;;;;;;6.80;2.37;;;12.40;99.90;;;;;;5110703;27;20224;-50
2021/06/13 02:09:02;;;;;;;5.83;2.80;;;12.40;99.90;;;;;;5124539;27;20196;-48
2021/06/13 02:11:31;;;;;;;6.00;2.07;;;12.40;99.90;;;;;;5122863;27;20240;-52
2021/06/13 02:13:57;;;;;;;4.90;2.10;;;12.40;99.90;;;;;;5125742;27;20222;-48
2021/06/13 02:16:32;;;;;;;8.00;2.50;;;12.50;99.90;;;;;;5107954;27;20208;-49
2021/06/13 02:19:00;;;;;;;10.07;2.23;;;12.50;99.90;;;;;;5123295;27;20208;-47
2021/06/13 02:21:31;;;;;;;7.77;2.67;;;12.50;99.90;;;;;;5120881;27;20236;-49
2021/06/13 02:23:57;;;;;;;8.00;2.43;;;12.50;99.90;;;;;;5124601;27;20220;-48
2021/06/13 02:26:26;;;;;;;6.90;2.30;;;12.60;99.90;;;;;;5109681;27;20607;-53
2021/06/13 02:28:54;;;;;;;13.37;3.50;;;12.60;99.90;;;;;;5103352;28;20258;-45
2021/06/13 02:31:25;;;;;;;6.80;2.30;;;12.60;99.90;;;;;;5098979;27;20293;-50
2021/06/13 02:33:54;;;;;;;6.27;2.77;;;12.60;99.90;;;;;;5124599;27;20183;-45
2021/06/13 02:36:22;;;;;;;11.17;2.70;;;12.70;99.90;;;;;;5122250;27;20197;-53
2021/06/13 02:38:56;;;;;;;8.23;3.00;;;12.70;99.90;;;;;;5122215;27;20311;-45
2021/06/13 02:41:23;;;;;;;6.27;2.57;;;12.70;99.90;;;;;;5113131;27;20209;-48
2021/06/13 02:43:49;;;;;;;12.77;2.50;;;12.70;99.90;;;;;;5119055;27;20191;-50
2021/06/13 02:46:16;;;;;;;10.20;2.60;;;12.80;99.90;;;;;;5105001;27;20255;-51
2021/06/13 02:48:42;;;;;;;7.17;2.33;;;12.70;99.90;;;;;;5113870;27;20189;-47
2021/06/13 02:51:12;;;;;;;4.93;2.50;;;12.70;99.90;;;;;;5125056;27;20236;-48
2021/06/13 02:53:43;;;;;;;8.07;2.33;;;12.70;99.90;;;;;;5121480;27;20240;-45
2021/06/13 02:56:19;;;;;;;4.87;2.47;;;12.70;99.90;;;;;;5122980;27;20621;-48
2021/06/13 02:58:47;;;;;;;6.70;2.50;;;12.70;99.90;;;;;;5122141;27;20179;-47
2021/06/13 03:01:17;;;;;;;6.20;2.50;;;12.70;99.90;;;;;;5122255;27;20212;-50
2021/06/13 03:03:45;;;;;;;8.73;2.57;;;12.80;99.90;;;;;;5111631;27;20257;-47
2021/06/13 03:06:19;;;;;;;9.17;2.63;;;12.80;99.90;;;;;;5123182;27;20204;-52
2021/06/13 03:08:47;;;;;;;8.10;2.13;;;12.80;99.90;;;;;;5120801;27;20213;-46
2021/06/13 03:11:14;;;;;;;8.20;2.20;;;12.80;99.90;;;;;;5124954;27;20208;-52
2021/06/13 03:13:44;;;;;;;9.00;2.97;;;12.80;99.90;;;;;;5118560;27;20320;-48
2021/06/13 03:16:11;;;;;;;7.77;2.70;;;12.80;99.90;;;;;;5125052;27;20588;-50
2021/06/13 03:18:40;;;;;;;7.27;2.97;;;12.80;99.90;;;;;;5100529;27;20197;-47
2021/06/13 03:21:07;;;;;;;12.83;3.20;;;12.80;99.90;;;;;;5124751;27;20221;-47
2021/06/13 03:23:37;;;;;;;8.67;2.83;;;12.80;99.90;;;;;;5120043;27;20201;-46
2021/06/13 03:26:04;;;;;;;12.30;2.77;;;12.80;99.90;;;;;;5125163;27;20197;-45
2021/06/13 03:28:35;;;;;;;8.80;2.67;;;12.90;99.90;;;;;;5117792;27;20249;-51
2021/06/13 03:31:03;;;;;;;7.63;2.60;;;12.90;99.90;;;;;;5123261;27;20350;-47
2021/06/13 03:33:36;;;;;;;5.50;2.83;;;12.90;99.90;;;;;;5100971;27;20928;-47
2021/06/13 03:36:05;;;;;;;8.80;3.17;;;12.90;99.90;;;;;;5122401;27;20197;-51
2021/06/13 03:38:33;;;;;;;7.20;2.47;;;12.90;99.90;;;;;;5118134;27;20283;-50
2021/06/13 03:41:03;;;;;;;9.40;2.60;;;12.90;99.90;;;;;;5122783;27;20247;-46
2021/06/13 03:43:32;;;;;;;8.33;2.80;;;12.90;99.90;;;;;;5111665;27;20213;-51
2021/06/13 03:45:59;;;;;;;3.87;2.10;;;13.00;99.90;;;;;;5124100;27;20193;-47
2021/06/13 03:48:26;;;;;;;11.13;2.47;;;13.00;99.90;;;;;;5101267;27;20197;-51
2021/06/13 03:50:55;;;;;;;8.83;2.63;;;13.00;99.90;;;;;;5121959;27;20205;-44
2021/06/13 03:53:22;;;;;;;8.17;3.13;;;13.10;99.90;;;;;;5122356;27;20267;-54
2021/06/13 03:55:52;;;;;;;5.70;2.70;;;13.10;99.90;;;;;;5122548;27;20177;-46
2021/06/13 03:58:24;;;;;;;5.43;2.60;;;13.10;99.90;;;;;;5105684;27;20197;-52
2021/06/13 04:00:52;;;;;;;7.53;2.73;;;13.20;99.90;;;;;;5117036;27;20701;-49
2021/06/13 04:03:20;;;;;;;12.23;2.77;;;13.20;99.90;;;;;;5093961;27;20220;-51
2021/06/13 04:05:48;;;;;;;15.40;3.63;;;13.20;99.90;;;;;;5124377;27;20185;-46
2021/06/13 04:08:15;;;;;;;10.60;2.70;;;13.20;99.90;;;;;;5096131;28;20209;-51
2021/06/13 04:10:47;;;;;;;9.33;2.77;;;13.30;99.90;;;;;;5102585;28;20291;-48
2021/06/13 04:13:14;;;;;;;7.70;2.40;;;13.30;99.90;;;;;;5100851;28;20186;-55
2021/06/13 04:15:43;;;;;;;8.23;2.30;;;13.30;99.90;;;;;;5103072;28;20186;-46
2021/06/13 04:18:11;;;;;;;11.80;2.67;;;13.30;99.90;;;;;;5097914;28;20209;-50
2021/06/13 04:20:39;;;;;;;8.23;2.83;;;13.40;99.90;;;;;;5094799;28;20211;-52
2021/06/13 04:23:08;;;;;;;9.27;2.87;;;13.40;99.90;;;;;;5111372;27;20217;-49
2021/06/13 04:25:35;;;;;;;7.83;2.33;;;13.40;99.90;;;;;;5099048;28;20339;-49
2021/06/13 04:28:03;;;;;;;12.57;2.87;;;13.40;99.90;;;;;;5103197;28;20658;-47
2021/06/13 04:30:29;;;;;;;9.67;2.70;;;13.40;99.90;;;;;;5099790;28;20205;-51
2021/06/13 04:32:57;;;;;;;6.43;2.73;;;13.50;99.90;;;;;;5111039;28;20200;-53
2021/06/13 04:35:24;;;;;;;8.27;3.13;;;13.50;99.90;;;;;;5099517;28;20320;-52
2021/06/13 04:37:51;;;;;;;10.77;2.53;;;13.50;99.90;;;;;;5111105;28;20288;-57
2021/06/13 04:40:18;;;;;;;10.13;2.63;;;13.50;99.90;;;;;;5095663;28;20257;-49
2021/06/13 04:42:44;;;;;;;12.17;3.33;;;13.60;99.90;;;;;;5122383;27;20204;-48
2021/06/13 04:45:12;;;;;;;7.50;3.10;;;13.50;99.90;;;;;;5115569;27;20208;-44
2021/06/13 04:47:39;;;;;;;9.57;3.10;;;13.60;99.90;;;;;;5107948;27;20200;-51
2021/06/13 04:50:08;;;;;;;8.00;2.90;;;13.60;99.90;;;;;;5117524;27;20208;-44
2021/06/13 04:52:37;;;;;;;8.37;2.93;;;13.60;99.90;;;;;;5130127;27;20199;-48
2021/06/13 04:55:14;;;;;;;6.47;3.20;;;13.60;99.90;;;;;;5107664;27;20200;-60
2021/06/13 04:57:56;;;;;;;4.83;2.67;;;13.60;99.90;;;;;;5140772;27;20192;-49
2021/06/13 05:00:23;;;;;;;8.93;3.00;;;13.60;99.90;;;;;;5125775;27;20239;-48
2021/06/13 05:02:49;;;;;;;8.27;3.23;;;13.70;99.90;;;;;;5116317;27;20255;-48
2021/06/13 05:05:18;;;;;;;8.53;2.77;;;13.70;99.90;;;;;;5136242;27;20250;-49
2021/06/13 05:07:45;;;;;;;8.53;2.77;;;13.80;99.90;;;;;;5113203;27;20586;-51
2021/06/13 05:10:13;;;;;;;11.27;3.20;;;13.70;99.90;;;;;;5109828;27;20649;-54
2021/06/13 05:12:48;;;;;;;7.60;3.20;;;13.80;99.90;;;;;;5135248;27;20185;-49
2021/06/13 05:15:15;;;;;;;9.27;3.10;;;13.70;99.90;;;;;;5124701;27;20200;-51
2021/06/13 05:17:42;;;;;;;12.30;3.43;;;13.70;99.90;;;;;;5121492;27;20200;-52
2021/06/13 05:20:10;;;;;;;4.40;2.67;;;13.80;99.90;;;;;;5123503;27;20200;-55
2021/06/13 05:23:00;;;;;;;8.87;3.13;;;13.80;99.90;;;;;;5107105;27;20217;-47
2021/06/13 05:25:29;;;;;;;7.83;2.80;;;13.90;99.90;;;;;;5110707;27;20335;-49
2021/06/13 05:27:56;;;;;;;9.13;3.10;;;13.90;99.90;;;;;;5106275;27;20208;-53
2021/06/13 05:30:24;;;;;;;7.37;2.70;;;13.90;99.90;;;;;;5121008;27;20211;-55
2021/06/13 05:32:50;;;;;;;9.90;3.27;;;13.90;99.90;;;;;;5121812;27;20208;-46
2021/06/13 05:35:18;;;;;;;7.33;2.73;;;13.90;99.90;;;;;;5105164;27;20196;-50
2021/06/13 05:37:44;;;;;;;9.27;3.27;;;13.90;99.90;;;;;;5123576;27;20287;-49
2021/06/13 05:40:14;;;;;;;10.87;3.37;;;13.90;99.90;;;;;;5095764;27;20222;-53
2021/06/13 05:42:41;;;;;;;8.23;2.90;;;13.90;99.90;;;;;;5119708;27;20211;-45
2021/06/13 05:45:09;;;;;;;12.50;3.07;;;14.00;99.90;;;;;;5121532;27;20193;-54
2021/06/13 05:47:36;;;;;;;9.07;3.53;;;13.90;99.90;;;;;;5123128;27;20189;-48
2021/06/13 05:50:04;;;;;;;11.00;3.60;;;13.90;99.90;;;;;;5123591;27;20764;-52
2021/06/13 05:52:31;;;;;;;7.70;3.10;;;14.00;99.90;;;;;;5134440;27;20177;-47
2021/06/13 05:54:58;;;;;;;8.00;3.90;;;14.00;99.90;;;;;;5109557;27;20211;-55
2021/06/13 05:57:31;;;;;;;6.87;3.43;;;14.00;99.90;;;;;;5105430;27;20279;-45
2021/06/13 05:59:57;;;;;;;7.87;3.90;;;14.10;99.90;;;;;;5121414;27;20228;-53
2021/06/13 06:02:24;;;;;;;7.77;3.30;;;14.10;99.90;;;;;;5122200;27;20223;-47
2021/06/13 06:04:51;;;;;;;11.30;3.93;;;14.10;99.90;;;;;;5118447;27;20220;-48
2021/06/13 06:07:17;;;;;;;9.77;2.93;;;14.10;99.90;;;;;;5120786;27;20181;-46
2021/06/13 06:09:44;;;;;;;11.37;3.20;;;14.10;99.90;;;;;;5110136;27;20216;-49
2021/06/13 06:12:11;;;;;;;9.90;3.33;;;14.20;99.90;;;;;;5108737;27;20212;-52
2021/06/13 06:14:41;;;;;;;11.50;4.00;;;14.20;99.90;;;;;;5115435;27;20204;-47
2021/06/13 06:17:08;;;;;;;13.23;3.93;;;14.30;99.90;;;;;;5102543;28;20276;-53
2021/06/13 06:19:35;;;;;;;10.40;4.27;;;14.30;99.90;;;;;;5100734;27;20197;-49
2021/06/13 06:22:01;;;;;;;10.10;4.30;;;14.40;99.90;;;;;;5120143;27;20662;-50
2021/06/13 06:24:28;;;;;;;7.30;3.27;;;14.40;99.90;;;;;;5108150;27;20228;-50
2021/06/13 06:26:55;;;;;;;11.80;3.87;;;14.50;99.90;;;;;;5124723;27;20200;-53
2021/06/13 06:29:21;;;;;;;9.50;3.37;;;14.50;99.90;;;;;;5114270;27;20323;-47
2021/06/13 06:31:49;;;;;;;13.37;3.43;;;14.60;99.90;;;;;;5104912;27;20674;-48
2021/06/13 06:34:16;;;;;;;12.57;3.43;;;14.60;99.90;;;;;;5109924;27;20177;-46
2021/06/13 06:36:44;;;;;;;12.10;3.90;;;14.60;99.90;;;;;;5103308;27;20204;-45
2021/06/13 06:39:11;;;;;;;10.57;3.33;;;14.60;99.90;;;;;;5098436;28;20185;-54
2021/06/13 06:41:38;;;;;;;7.03;2.80;;;14.60;99.90;;;;;;5103159;27;20212;-47
2021/06/13 06:44:05;;;;;;;11.13;3.40;;;14.60;99.90;;;;;;5122078;27;20223;-53
2021/06/13 06:46:32;;;;;;;9.23;3.30;;;14.70;99.90;;;;;;5116097;27;20204;-46
2021/06/13 06:49:00;;;;;;;9.33;3.33;;;14.80;99.90;;;;;;5111279;27;20286;-52
2021/06/13 06:51:27;;;;;;;9.50;3.60;;;15.00;99.90;;;;;;5113855;27;20981;-48
2021/06/13 06:53:55;;;;;;;9.37;3.53;;;15.20;99.90;;;;;;5098203;27;20558;-55
2021/06/13 06:56:22;;;;;;;6.77;2.57;;;15.20;99.90;;;;;;5100866;27;21721;-46
2021/06/13 06:58:49;;;;;;;4.63;3.10;;;15.20;99.90;;;;;;5113939;27;20561;-52
2021/06/13 07:01:15;;;;;;;10.93;3.40;;;15.10;99.90;;;;;;5132375;27;20212;-51
2021/06/13 07:03:42;;;;;;;9.10;3.60;;;15.20;99.90;;;;;;5121372;27;20216;-46
2021/06/13 07:06:10;;;;;;;8.47;2.97;;;15.20;99.90;;;;;;5113115;27;20216;-45
2021/06/13 07:08:37;;;;;;;10.60;2.80;;;15.00;99.90;;;;;;5110294;27;20544;-48
2021/06/13 07:11:03;;;;;;;9.27;3.10;;;15.00;99.90;;;;;;5116575;27;20222;-55
2021/06/13 07:13:30;;;;;;;6.27;3.30;;;14.90;99.90;;;;;;5122170;27;20201;-47
2021/06/13 07:15:57;;;;;;;7.20;3.40;;;15.00;99.90;;;;;;5127466;27;20196;-54
2021/06/13 07:18:24;;;;;;;24.90;3.30;;;15.00;99.90;;;;;;5114117;27;20212;-47
2021/06/13 07:20:50;;;;;;;9.73;3.03;;;15.00;99.90;;;;;;5131660;27;20783;-54
2021/06/13 07:23:18;;;;;;;9.20;3.10;;;15.10;99.90;;;;;;5117164;27;20217;-47
2021/06/13 07:25:46;;;;;;;7.33;3.33;;;15.10;99.90;;;;;;5128340;27;20195;-46
2021/06/13 07:28:14;;;;;;;7.17;3.00;;;15.10;99.90;;;;;;5089546;27;20209;-47
2021/06/13 07:30:41;;;;;;;7.17;3.40;;;15.00;99.90;;;;;;5124295;27;20215;-47
2021/06/13 07:33:09;;;;;;;6.17;2.83;;;14.90;99.90;;;;;;5118977;27;20234;-48
2021/06/13 07:35:37;;;;;;;8.97;3.50;;;14.90;99.90;;;;;;5130355;27;20193;-45
2021/06/13 07:38:04;;;;;;;7.53;3.27;;;14.80;99.90;;;;;;5116875;27;20200;-54
2021/06/13 07:40:33;;;;;;;9.77;3.67;;;14.70;99.90;;;;;;5125352;27;20209;-48
2021/06/13 07:43:00;;;;;;;5.93;3.17;;;14.70;99.90;;;;;;5109958;27;20216;-53
2021/06/13 07:45:27;;;;;;;15.13;3.50;;;14.80;99.90;;;;;;5121731;27;20665;-45
2021/06/13 07:47:55;;;;;;;9.70;3.20;;;14.80;99.90;;;;;;5115185;27;20200;-54
2021/06/13 07:50:22;;;;;;;9.40;3.10;;;14.90;99.90;;;;;;5126632;27;20215;-47
2021/06/13 07:52:50;;;;;;;7.90;3.17;;;15.00;99.90;;;;;;5116892;27;20197;-52
2021/06/13 07:55:18;;;;;;;8.87;3.33;;;15.10;99.90;;;;;;5121199;27;20207;-46
2021/06/13 07:57:47;;;;;;;8.10;2.70;;;15.10;99.90;;;;;;5124041;27;20801;-44
2021/06/13 08:00:16;;;;;;;8.40;2.83;;;15.20;99.90;;;;;;5093234;27;20216;-51
2021/06/13 08:02:43;;;;;;;7.60;3.20;;;15.40;99.90;;;;;;5124527;27;20655;-47
2021/06/13 08:05:13;;;;;;;11.43;2.97;;;15.50;99.90;;;;;;5127689;27;20193;-48
2021/06/13 08:07:40;;;;;;;8.27;2.97;;;15.60;99.90;;;;;;5110720;27;20280;-46
2021/06/13 08:10:09;;;;;;;8.03;3.10;;;15.70;99.90;;;;;;5115359;27;20918;-45
2021/06/13 08:12:37;;;;;;;4.40;2.60;;;15.90;99.90;;;;;;5125467;27;20271;-49
2021/06/13 08:15:07;;;;;;;11.80;2.73;;;15.80;99.90;;;;;;5110615;27;20200;-55
2021/06/13 08:17:34;;;;;;;7.30;3.27;;;15.70;99.90;;;;;;5115374;27;20189;-52
2021/06/13 08:20:00;;;;;;;5.33;2.93;;;15.80;99.90;;;;;;5118398;27;20207;-54
2021/06/13 08:22:27;;;;;;;8.43;2.93;;;15.70;99.90;;;;;;5114752;27;20205;-45
2021/06/13 08:24:54;;;;;;;8.17;3.10;;;15.80;99.90;;;;;;5122459;28;20586;-54
2021/06/13 08:27:20;;;;;;;7.80;3.00;;;15.90;99.90;;;;;;5121097;28;20822;-50
2021/06/13 08:29:47;;;;;;;7.37;3.23;;;16.00;99.90;;;;;;5121740;28;20208;-57
2021/06/13 08:32:15;;;;;;;10.47;2.73;;;16.00;99.90;;;;;;5101082;27;20868;-45
2021/06/13 08:34:42;;;;;;;15.97;3.80;;;16.10;99.90;;;;;;5124040;27;20196;-45
2021/06/13 08:37:08;;;;;;;10.00;2.93;;;16.10;99.90;;;;;;5119146;27;20841;-50
2021/06/13 08:39:35;;;;;;;9.77;3.73;;;16.00;99.90;;;;;;5127375;27;20197;-48
2021/06/13 08:42:02;;;;;;;9.70;3.77;;;16.00;99.90;;;;;;5123762;27;20196;-54
2021/06/13 08:44:29;;;;;;;9.80;3.47;;;16.00;99.90;;;;;;5127355;27;20219;-52
2021/06/13 08:46:59;;;;;;;10.23;3.90;;;16.10;99.90;;;;;;5096284;27;20304;-53
2021/06/13 08:49:27;;;;;;;6.87;3.40;;;16.10;99.90;;;;;;5117468;27;20562;-48
2021/06/13 08:51:55;;;;;;;6.70;3.73;;;16.10;99.90;;;;;;5118688;27;20205;-56
2021/06/13 08:54:23;;;;;;;10.07;3.47;;;16.10;99.90;;;;;;5125446;27;20207;-45
2021/06/13 08:56:49;;;;;;;8.17;3.60;;;16.00;99.90;;;;;;5121528;27;20251;-56
2021/06/13 08:59:16;;;;;;;11.03;3.43;;;16.00;99.90;;;;;;5123660;27;20184;-46
2021/06/13 09:01:43;;;;;;;7.77;3.80;;;15.90;99.90;;;;;;5095530;27;20232;-53
2021/06/13 09:04:10;;;;;;;12.87;3.97;;;15.80;99.90;;;;;;5121353;27;20266;-48
2021/06/13 09:06:38;;;;;;;8.00;3.37;;;15.80;99.90;;;;;;5127699;27;20192;-47
2021/06/13 09:09:16;;;;;;;8.90;3.83;;;15.90;99.90;;;;;;5122490;27;20195;-54
2021/06/13 09:11:57;;;;;;;9.27;3.90;;;16.00;99.90;;;;;;5113519;27;20629;-49
2021/06/13 09:14:25;;;;;;;8.30;3.90;;;16.00;99.90;;;;;;5105722;28;20196;-49
2021/06/13 09:16:52;;;;;;;9.77;3.87;;;16.00;99.90;;;;;;5093018;27;20201;-56
2021/06/13 09:19:19;;;;;;;8.43;3.70;;;16.20;99.90;;;;;;5117628;27;20193;-52
2021/06/13 09:21:47;;;;;;;12.67;5.07;;;16.40;99.90;;;;;;5126820;27;20200;-52
2021/06/13 09:24:19;;;;;;;10.70;3.83;;;16.50;99.90;;;;;;5122918;27;20219;-49
2021/06/13 09:26:45;;;;;;;13.00;3.77;;;16.70;99.90;;;;;;5123542;27;20186;-49
2021/06/13 09:29:12;;;;;;;11.30;3.67;;;16.90;99.90;;;;;;5108567;27;20189;-49
2021/06/13 09:31:39;;;;;;;6.97;3.83;;;17.00;99.90;;;;;;5107266;27;20220;-51
2021/06/13 09:34:14;;;;;;;7.93;4.00;;;17.10;99.90;;;;;;5113891;27;20200;-55
2021/06/13 09:36:40;;;;;;;9.20;3.33;;;16.90;99.90;;;;;;5127189;27;20556;-52
2021/06/13 09:39:10;;;;;;;8.00;3.70;;;16.90;99.90;;;;;;5122096;27;20905;-47
2021/06/13 09:41:39;;;;;;;6.70;3.53;;;17.10;99.90;;;;;;5126896;27;20396;-48
2021/06/13 09:44:07;;;;;;;4.80;3.30;;;17.10;99.90;;;;;;5113828;27;20323;-54
2021/06/13 09:46:35;;;;;;;8.17;3.43;;;17.00;99.90;;;;;;5104646;27;20201;-49
2021/06/13 09:49:05;;;;;;;8.37;3.93;;;17.10;99.90;;;;;;5094610;27;20215;-56
2021/06/13 09:51:34;;;;;;;8.70;3.57;;;17.10;99.90;;;;;;5126495;27;21525;-46
2021/06/13 09:54:02;;;;;;;7.47;3.17;;;17.20;99.90;;;;;;5121159;27;20196;-57
2021/06/13 09:56:31;;;;;;;7.87;3.37;;;17.30;99.90;;;;;;5125594;27;20212;-49
2021/06/13 09:59:04;;;;;;;6.70;3.67;;;17.30;99.90;;;;;;5123201;27;20197;-57
2021/06/13 10:01:38;;;;;;;8.80;3.20;;;17.30;99.90;;;;;;5123311;27;20607;-48
2021/06/13 10:04:06;;;;;;;7.80;3.00;;;17.30;99.90;;;;;;5107923;27;20295;-56
2021/06/13 10:06:35;;;;;;;5.70;3.57;;;17.50;99.90;;;;;;5124896;27;20222;-52
2021/06/13 10:09:03;;;;;;;5.53;2.90;;;17.60;99.90;;;;;;5121763;27;20220;-55
2021/06/13 10:11:33;;;;;;;7.60;3.73;;;17.50;99.90;;;;;;5125032;27;20240;-47
2021/06/13 10:14:02;;;;;;;10.83;3.67;;;17.30;99.90;;;;;;5121871;27;20188;-59
2021/06/13 10:16:31;;;;;;;6.37;3.43;;;17.10;99.90;;;;;;5122553;27;20662;-53
2021/06/13 10:19:00;;;;;;;6.90;3.90;;;17.10;99.90;;;;;;5099696;27;20706;-57
2021/06/13 10:21:31;;;;;;;6.93;4.00;;;17.30;99.90;;;;;;5121956;27;20239;-52
2021/06/13 10:23:58;;;;;;;7.87;3.50;;;17.50;99.90;;;;;;5119867;27;20252;-56
2021/06/13 10:26:25;;;;;;;11.27;3.80;;;17.60;99.90;;;;;;5122437;27;20191;-51
2021/06/13 10:28:54;;;;;;;8.63;3.77;;;17.60;99.90;;;;;;5122184;27;20193;-55
2021/06/13 10:31:21;;;;;;;8.43;4.00;;;17.70;99.90;;;;;;5122282;27;20205;-47
2021/06/13 10:33:48;;;;;;;10.07;3.53;;;17.80;99.40;;;;;;5109971;27;20693;-59
2021/06/13 10:36:16;;;;;;;6.43;3.10;;;17.80;99.60;;;;;;5121217;27;20196;-50
2021/06/13 10:38:43;;;;;;;6.73;3.50;;;17.80;99.90;;;;;;5125402;27;20617;-49
2021/06/13 10:41:11;;;;;;;8.23;3.93;;;18.00;99.50;;;;;;5119343;27;20296;-53
2021/06/13 10:43:39;;;;;;;6.10;3.73;;;18.00;99.00;;;;;;5122189;27;20200;-50
2021/06/13 10:46:12;;;;;;;10.47;3.73;;;17.90;99.30;;;;;;5102753;27;20204;-55
2021/06/13 10:48:48;;;;;;;7.57;3.20;;;17.80;99.70;;;;;;5123683;27;20189;-46
2021/06/13 10:51:38;;;;;;;6.07;3.47;;;17.90;99.50;;;;;;5107990;27;20292;-44
2021/06/13 10:54:31;;;;;;;5.67;2.90;;;17.90;97.40;;;;;;5112534;27;20199;-56
2021/06/13 10:57:34;;;;;;;6.47;3.10;;;17.70;98.50;;;;;;5111791;27;21198;-56
2021/06/13 11:00:30;;;;;;;7.77;3.63;;;17.70;99.60;;;;;;5116952;27;20224;-59
2021/06/13 11:03:00;;;;;;;7.00;3.77;;;17.70;99.30;;;;;;5120476;27;20241;-58
2021/06/13 11:05:53;;;;;;;8.80;3.77;;;17.70;98.80;;;;;;5108135;27;20806;-50
2021/06/13 11:08:20;;;;;;;10.40;3.40;;;17.80;97.00;;;;;;5090334;27;20918;-52
2021/06/13 11:10:47;;;;;;;4.90;2.93;;;17.90;97.90;;;;;;5098892;27;20245;-50
2021/06/13 11:13:21;;;;;;;8.87;4.67;;;17.90;97.50;;;;;;5118840;27;20563;-53
2021/06/13 11:15:53;;;;;;;10.37;4.80;;;17.80;99.00;;;;;;5126646;27;20193;-45
2021/06/13 11:18:25;;;;;;;9.23;4.13;;;17.70;99.90;;;;;;5130207;27;20558;-57
2021/06/13 11:20:54;;;;;;;7.83;3.77;;;17.60;99.90;;;;;;5104703;27;20224;-48
2021/06/13 11:24:04;;;;;;;9.23;3.80;;;18.00;99.90;;;;;;5111703;27;20689;-53
2021/06/13 11:26:39;;;;;;;7.53;3.57;;;18.10;99.90;;;;;;5092333;27;20213;-55
2021/06/13 11:29:08;;;;;;;8.20;4.07;;;18.00;99.90;;;;;;5132423;27;20184;-46
2021/06/13 11:31:35;;;;;;;7.87;3.40;;;18.10;99.90;;;;;;5107392;27;20217;-57
2021/06/13 11:34:10;;;;;;;9.20;4.07;;;18.10;99.90;;;;;;5117088;27;20324;-51
2021/06/13 11:36:41;;;;;;;8.30;4.30;;;18.10;99.90;;;;;;5104903;27;20201;-48
2021/06/13 11:39:22;;;;;;;7.67;3.80;;;18.10;99.90;;;;;;5130210;27;20255;-47
2021/06/13 11:41:51;;;;;;;10.00;4.00;;;18.10;99.90;;;;;;5137577;27;20219;-50
2021/06/13 11:44:40;;;;;;;7.10;4.03;;;18.20;99.90;;;;;;5123835;27;20569;-56
2021/06/13 11:47:40;;;;;;;9.13;3.67;;;18.40;99.50;;;;;;5111980;27;20208;-47
2021/06/13 11:50:12;;;;;;;5.70;3.30;;;18.30;99.90;;;;;;5054761;28;20257;-48
2021/06/13 11:53:00;;;;;;;6.73;3.47;;;18.50;99.90;;;;;;5086233;27;20277;-47
2021/06/13 11:56:00;;;;;;;6.47;3.97;;;18.40;99.20;;;;;;5121398;27;20199;-56
2021/06/13 11:58:27;;;;;;;5.50;3.57;;;18.40;99.50;;;;;;5100210;27;20669;-58
2021/06/13 12:00:58;;;;;;;7.77;3.57;;;18.30;99.90;;;;;;5123937;27;20204;-49
2021/06/13 12:03:26;;;;;;;6.40;3.60;;;18.30;99.60;;;;;;5110423;27;20249;-57
2021/06/13 12:06:15;;;;;;;4.77;2.97;;;18.50;99.80;;;;;;5118234;27;20220;-49
2021/06/13 12:08:43;;;;;;;11.20;3.40;;;18.70;99.50;;;;;;5107482;27;20191;-50
2021/06/13 12:11:25;;;;;;;5.43;2.97;;;18.70;98.80;;;;;;5124256;27;20303;-45
2021/06/13 12:13:52;;;;;;;6.33;3.43;;;18.70;98.70;;;;;;5121729;27;20267;-47
2021/06/13 12:16:19;;;;;;;5.13;2.80;;;18.80;98.30;;;;;;5126475;27;20188;-56
2021/06/13 12:19:02;;;;;;;8.90;3.80;;;18.70;98.10;;;;;;5126371;27;20191;-48
2021/06/13 12:21:31;;;;;;;5.20;3.20;;;18.70;97.80;;;;;;5101631;27;20217;-55
2021/06/13 12:24:10;;;;;;;8.73;3.37;;;18.70;97.80;;;;;;5104855;27;20208;-46
2021/06/13 12:29:26;;;;;;;7.23;3.23;;;18.60;98.30;;;;;;5124122;27;20584;-54
2021/06/13 12:31:53;;;;;;;6.73;3.27;;;18.50;98.30;;;;;;5122506;27;20228;-45
2021/06/13 12:34:20;;;;;;;6.73;3.40;;;18.50;98.40;;;;;;5125206;27;20568;-55
2021/06/13 12:36:55;;;;;;;8.27;3.30;;;18.60;98.50;;;;;;5111360;27;20371;-55
2021/06/13 12:39:27;;;;;;;5.80;2.77;;;18.70;97.90;;;;;;5107309;27;20741;-48
2021/06/13 12:41:54;;;;;;;7.53;3.40;;;19.00;98.10;;;;;;5122377;27;20200;-57
2021/06/13 12:44:21;;;;;;;7.23;3.00;;;19.20;98.20;;;;;;5118141;27;20206;-45
2021/06/13 12:46:48;;;;;;;7.33;3.30;;;19.30;97.80;;;;;;5131436;27;20185;-58
2021/06/13 12:49:15;;;;;;;5.70;3.33;;;19.20;97.70;;;;;;5116929;27;20240;-47
2021/06/13 12:51:43;;;;;;;5.93;3.07;;;19.30;97.40;;;;;;5121030;27;20717;-57
2021/06/13 12:54:17;;;;;;;7.33;3.13;;;19.20;97.90;;;;;;5101054;27;24369;-50
2021/06/13 12:56:45;;;;;;;7.80;3.60;;;19.10;97.20;;;;;;5122681;27;20204;-55
2021/06/13 12:59:12;;;;;;;6.07;2.90;;;18.90;97.70;;;;;;5109779;27;20193;-51
2021/06/13 13:01:41;;;;;;;5.43;2.83;;;19.20;97.00;;;;;;5118186;27;20270;-56